Time;durP1;ratioP1;P1;durP2;ratioP2;P2;SDS_P1;SDS_P2;PMS_P1;PMS_P2;Temp;Humidity;BMP_temperature;BMP_pressure;BME280_temperature;BME280_humidity;BME280_pressure;Samples;Min_cycle;Max_cycle;Signal;HPM_P1;HPM_P2
2023/12/12 00:00:24;;;;;;;5.57;1.85;;;;;;;6.31;100.00;100771.66;7391472;19;19926;-80
2023/12/12 00:02:53;;;;;;;5.78;1.83;;;;;;;6.31;100.00;100769.81;7391402;19;19990;-80
2023/12/12 00:05:21;;;;;;;6.50;1.75;;;;;;;6.30;100.00;100776.16;7391214;19;19926;-81
2023/12/12 00:07:50;;;;;;;3.90;1.60;;;;;;;6.28;100.00;100769.28;7391809;19;19963;-80
2023/12/12 00:10:20;;;;;;;4.82;1.35;;;;;;;6.28;100.00;100777.31;7391583;19;20280;-80
2023/12/12 00:12:51;;;;;;;4.45;1.35;;;;;;;6.27;100.00;100763.09;7392101;19;19930;-80
2023/12/12 00:15:20;;;;;;;5.63;1.45;;;;;;;6.26;100.00;100765.91;7398607;19;20734;-80
2023/12/12 00:17:49;;;;;;;5.95;2.17;;;;;;;6.25;100.00;100765.09;7391563;19;19986;-81
2023/12/12 00:20:18;;;;;;;3.83;2.08;;;;;;;6.23;100.00;100753.69;7392182;19;19914;-80
2023/12/12 00:22:46;;;;;;;4.32;2.53;;;;;;;6.23;100.00;100763.53;7390357;19;20266;-80
2023/12/12 00:25:35;;;;;;;5.50;2.10;;;;;;;6.21;100.00;100758.34;7389095;19;19927;-80
2023/12/12 00:28:06;;;;;;;5.95;2.38;;;;;;;6.19;100.00;100760.34;7390789;19;20000;-81
2023/12/12 00:30:35;;;;;;;3.40;2.47;;;;;;;6.19;100.00;100757.66;7391987;19;19929;-81
2023/12/12 00:33:03;;;;;;;10.32;2.78;;;;;;;6.19;100.00;100764.84;7398254;19;19923;-81
2023/12/12 00:35:32;;;;;;;5.78;2.30;;;;;;;6.15;100.00;100758.13;7396247;19;19918;-80
2023/12/12 00:38:01;;;;;;;5.20;2.25;;;;;;;6.13;100.00;100763.59;7397491;19;19915;-80
2023/12/12 00:40:30;;;;;;;4.70;1.98;;;;;;;6.12;100.00;100764.63;7398353;19;20418;-80
2023/12/12 00:42:58;;;;;;;5.35;2.20;;;;;;;6.11;100.00;100762.94;7397870;19;20371;-81
2023/12/12 00:45:50;;;;;;;5.03;2.20;;;;;;;6.07;100.00;100755.34;7394291;19;20493;-81
2023/12/12 00:48:19;;;;;;;7.70;2.20;;;;;;;6.09;100.00;100762.22;7396972;19;20466;-81
2023/12/12 00:50:48;;;;;;;5.13;2.20;;;;;;;6.09;100.00;100759.56;7397721;19;19915;-81
2023/12/12 00:53:17;;;;;;;7.80;2.50;;;;;;;6.06;100.00;100756.34;7397270;19;19930;-81
2023/12/12 00:55:46;;;;;;;5.80;2.15;;;;;;;6.04;100.00;100766.38;7396005;19;20279;-80
2023/12/12 00:58:15;;;;;;;13.85;2.88;;;;;;;5.99;100.00;100764.13;7396299;19;20344;-80
2023/12/12 01:00:45;;;;;;;5.57;2.78;;;;;;;5.94;100.00;100761.06;7393902;19;19968;-81
2023/12/12 01:03:16;;;;;;;6.25;2.85;;;;;;;5.91;100.00;100769.41;7398607;19;20392;-80
2023/12/12 01:05:45;;;;;;;8.35;3.55;;;;;;;5.87;100.00;100774.19;7394804;19;19923;-81
2023/12/12 01:08:13;;;;;;;7.78;3.10;;;;;;;5.84;100.00;100776.28;7396945;19;19923;-80
2023/12/12 01:10:42;;;;;;;7.40;3.80;;;;;;;5.80;100.00;100775.75;7395711;19;20410;-81
2023/12/12 01:13:11;;;;;;;8.15;3.17;;;;;;;5.75;100.00;100770.00;7397074;19;19926;-80
2023/12/12 01:15:59;;;;;;;6.13;3.25;;;;;;;5.71;100.00;100773.09;7395385;19;19926;-80
2023/12/12 01:18:34;;;;;;;7.55;3.58;;;;;;;5.67;100.00;100775.25;7394964;19;19977;-80
2023/12/12 01:21:03;;;;;;;10.77;4.25;;;;;;;5.64;100.00;100778.22;7401641;19;19918;-79
2023/12/12 01:23:49;;;;;;;7.97;3.92;;;;;;;5.56;100.00;100771.94;7395322;19;19934;-80
2023/12/12 01:26:18;;;;;;;7.60;3.38;;;;;;;5.56;100.00;100778.13;7396407;19;20750;-80
2023/12/12 01:28:47;;;;;;;6.60;3.88;;;;;;;5.51;100.00;100772.38;7395877;19;19922;-80
2023/12/12 01:31:16;;;;;;;6.35;3.80;;;;;;;5.49;100.00;100777.84;7397340;19;19915;-80
2023/12/12 01:34:07;;;;;;;5.82;3.90;;;;;;;5.45;100.00;100768.44;7395882;19;19915;-80
2023/12/12 01:36:36;;;;;;;8.75;4.50;;;;;;;5.43;100.00;100770.44;7396445;19;19923;-80
2023/12/12 01:39:05;;;;;;;10.05;4.18;;;;;;;5.39;100.00;100773.53;7396782;19;19926;-80
2023/12/12 01:41:33;;;;;;;7.85;3.67;;;;;;;5.35;100.00;100774.81;7400959;19;20400;-81
2023/12/12 01:44:02;;;;;;;6.65;3.10;;;;;;;5.30;100.00;100766.41;7394939;19;19915;-80
2023/12/12 01:46:33;;;;;;;6.03;3.30;;;;;;;5.27;100.00;100764.00;7396637;19;19959;-80
2023/12/12 01:49:02;;;;;;;7.43;2.85;;;;;;;5.23;100.00;100766.13;7396114;19;19926;-80
2023/12/12 01:51:33;;;;;;;10.30;2.67;;;;;;;5.19;100.00;100767.41;7393890;19;19955;-81
2023/12/12 01:54:04;;;;;;;6.95;2.92;;;;;;;5.16;100.00;100765.03;7396066;19;19922;-81
2023/12/12 01:56:35;;;;;;;5.28;2.25;;;;;;;5.11;100.00;100779.78;7393763;19;20668;-81
2023/12/12 01:59:05;;;;;;;7.47;3.50;;;;;;;5.08;100.00;100772.94;7395518;19;19927;-81
2023/12/12 02:01:35;;;;;;;8.50;3.20;;;;;;;5.04;100.00;100768.88;7395701;19;19927;-81
2023/12/12 02:04:04;;;;;;;7.38;3.30;;;;;;;5.01;100.00;100767.31;7393974;19;19958;-81
2023/12/12 02:06:35;;;;;;;6.35;2.63;;;;;;;4.97;100.00;100775.75;7395533;19;20498;-81
2023/12/12 02:09:04;;;;;;;4.63;1.90;;;;;;;4.94;100.00;100776.88;7392386;19;19958;-81
2023/12/12 02:11:52;;;;;;;4.35;1.35;;;;;;;4.91;100.00;100779.00;7394145;19;19923;-81
2023/12/12 02:14:21;;;;;;;2.80;1.13;;;;;;;4.89;100.00;100775.63;7396069;19;19942;-81
2023/12/12 02:16:50;;;;;;;4.78;0.88;;;;;;;4.88;100.00;100774.78;7394816;19;19914;-81
2023/12/12 02:19:19;;;;;;;2.88;1.10;;;;;;;4.90;100.00;100782.66;7393349;19;19927;-81
2023/12/12 02:21:50;;;;;;;4.38;1.10;;;;;;;4.89;100.00;100788.97;7394752;19;19960;-81
2023/12/12 02:24:19;;;;;;;5.63;1.40;;;;;;;4.87;100.00;100786.47;7393936;19;20564;-80
2023/12/12 02:26:48;;;;;;;2.85;1.20;;;;;;;4.88;100.00;100793.47;7395048;19;19926;-81
2023/12/12 02:29:16;;;;;;;5.05;1.30;;;;;;;4.88;100.00;100798.78;7402519;19;19943;-81
2023/12/12 02:31:45;;;;;;;5.43;1.40;;;;;;;4.88;100.00;100796.13;7394840;19;19954;-81
2023/12/12 02:34:13;;;;;;;2.53;0.90;;;;;;;4.87;100.00;100796.28;7393191;19;19946;-81
2023/12/12 02:36:43;;;;;;;3.30;1.23;;;;;;;4.87;100.00;100790.94;7396248;19;20341;-81
2023/12/12 02:39:15;;;;;;;5.65;1.73;;;;;;;4.84;100.00;100789.38;7393961;19;20029;-81
2023/12/12 02:41:44;;;;;;;5.07;1.33;;;;;;;4.86;100.00;100790.09;7395760;19;19914;-81
2023/12/12 02:44:12;;;;;;;8.50;1.42;;;;;;;4.88;100.00;100781.94;7394135;19;19922;-81
2023/12/12 02:46:41;;;;;;;3.72;1.10;;;;;;;4.88;100.00;100796.13;7395705;19;21702;-81
2023/12/12 02:49:09;;;;;;;6.00;1.15;;;;;;;4.88;100.00;100787.28;7393510;19;19918;-81
2023/12/12 02:51:38;;;;;;;4.85;1.33;;;;;;;4.88;100.00;100787.28;7394526;19;19918;-81
2023/12/12 02:54:06;;;;;;;5.38;0.90;;;;;;;4.87;100.00;100783.78;7395484;19;19933;-81
2023/12/12 02:56:38;;;;;;;3.03;1.08;;;;;;;4.89;100.00;100788.97;7395592;19;19923;-81
2023/12/12 02:59:07;;;;;;;5.00;1.27;;;;;;;4.90;100.00;100790.66;7394062;19;19930;-81
2023/12/12 03:01:36;;;;;;;3.67;1.20;;;;;;;4.89;100.00;100781.81;7393975;19;19958;-81
2023/12/12 03:04:04;;;;;;;4.47;1.38;;;;;;;4.91;100.00;100787.00;7395279;19;19956;-81
2023/12/12 03:06:33;;;;;;;5.03;1.30;;;;;;;4.91;100.00;100790.53;7393658;19;19922;-81
2023/12/12 03:09:01;;;;;;;5.82;1.00;;;;;;;4.93;100.00;100796.53;7394121;19;19939;-80
2023/12/12 03:11:30;;;;;;;2.80;1.00;;;;;;;4.93;100.00;100791.22;7395094;19;20287;-81
2023/12/12 03:14:01;;;;;;;6.97;1.70;;;;;;;4.93;100.00;100787.69;7396241;19;19918;-80
2023/12/12 03:16:30;;;;;;;2.13;1.27;;;;;;;4.93;100.00;100793.88;7392069;19;19958;-81
2023/12/12 03:18:58;;;;;;;3.17;1.40;;;;;;;4.94;100.00;100787.56;7393552;19;19947;-81
2023/12/12 03:21:27;;;;;;;5.13;0.95;;;;;;;4.95;100.00;100788.41;7393267;19;20258;-81
2023/12/12 03:23:56;;;;;;;2.63;1.02;;;;;;;4.98;100.00;100788.13;7391353;19;20346;-81
2023/12/12 03:26:25;;;;;;;2.70;0.90;;;;;;;4.98;100.00;100788.13;7395795;19;19919;-81
2023/12/12 03:28:53;;;;;;;2.80;1.27;;;;;;;4.97;100.00;100781.94;7394169;19;19943;-81
2023/12/12 03:31:24;;;;;;;3.95;1.38;;;;;;;4.98;100.00;100788.97;7395191;19;20364;-81
2023/12/12 03:33:53;;;;;;;3.58;1.33;;;;;;;5.00;100.00;100781.63;7394349;19;19922;-80
2023/12/12 03:36:21;;;;;;;5.07;1.10;;;;;;;5.01;100.00;100777.13;7401561;19;19914;-81
2023/12/12 03:38:50;;;;;;;3.42;1.40;;;;;;;5.02;100.00;100779.69;7393393;19;19927;-80
2023/12/12 03:41:19;;;;;;;4.13;1.10;;;;;;;5.05;100.00;100781.19;7394534;19;20276;-81
2023/12/12 03:43:48;;;;;;;3.85;1.10;;;;;;;5.07;100.00;100778.41;7392989;19;19930;-81
2023/12/12 03:46:16;;;;;;;3.25;0.90;;;;;;;5.07;100.00;100762.38;7394388;19;19947;-81
2023/12/12 03:48:48;;;;;;;3.70;0.90;;;;;;;5.06;100.00;100761.53;7393129;19;19923;-80
2023/12/12 03:51:16;;;;;;;4.38;0.88;;;;;;;5.08;100.00;100769.41;7392498;19;19930;-81
2023/12/12 03:53:45;;;;;;;1.23;1.05;;;;;;;5.07;100.00;100762.38;7393467;19;19930;-81
2023/12/12 03:56:13;;;;;;;3.50;1.05;;;;;;;5.06;100.00;100758.03;7395564;19;19956;-81
2023/12/12 03:58:42;;;;;;;4.45;1.40;;;;;;;5.02;100.00;100761.00;7394948;19;19922;-81
2023/12/12 04:01:11;;;;;;;4.40;1.15;;;;;;;4.97;100.00;100765.06;7396342;19;19922;-81
2023/12/12 04:03:40;;;;;;;3.53;0.70;;;;;;;4.92;100.00;100761.97;7396426;19;19918;-80
2023/12/12 04:06:11;;;;;;;6.28;1.02;;;;;;;4.88;100.00;100763.25;7395358;19;19950;-81
2023/12/12 04:08:40;;;;;;;5.97;0.90;;;;;;;4.85;100.00;100767.06;7396940;19;19923;-80
2023/12/12 04:11:08;;;;;;;1.30;0.60;;;;;;;4.86;100.00;100762.56;7397917;19;20364;-80
2023/12/12 04:13:37;;;;;;;4.15;0.80;;;;;;;4.84;100.00;100754.69;7398158;19;20277;-81
2023/12/12 04:16:06;;;;;;;3.05;0.98;;;;;;;4.85;100.00;100761.72;7399477;19;20490;-81
2023/12/12 04:18:35;;;;;;;3.38;0.75;;;;;;;4.82;100.00;100758.50;7400454;19;19957;-81
2023/12/12 04:21:04;;;;;;;3.28;1.08;;;;;;;4.80;100.00;100769.31;7399190;19;19918;-80
2023/12/12 04:23:38;;;;;;;2.25;0.80;;;;;;;4.77;100.00;100758.94;7398950;19;19926;-81
2023/12/12 04:26:09;;;;;;;2.17;0.60;;;;;;;4.75;100.00;100760.03;7397738;19;20328;-81
2023/12/12 04:28:37;;;;;;;3.80;0.90;;;;;;;4.74;100.00;100766.38;7398260;19;19938;-81
2023/12/12 04:31:06;;;;;;;4.78;1.10;;;;;;;4.70;100.00;100765.00;7396882;19;19934;-81
2023/12/12 04:33:35;;;;;;;3.83;0.95;;;;;;;4.64;100.00;100770.88;7399244;19;19914;-81
2023/12/12 04:36:03;;;;;;;3.85;0.80;;;;;;;4.61;100.00;100779.16;7397887;19;19930;-81
2023/12/12 04:38:36;;;;;;;4.30;0.70;;;;;;;4.55;100.00;100777.91;7397267;19;19931;-80
2023/12/12 04:41:06;;;;;;;4.22;0.80;;;;;;;4.52;100.00;100773.69;7396479;19;20246;-80
2023/12/12 04:43:35;;;;;;;1.60;0.70;;;;;;;4.49;100.00;100770.44;7401810;19;20268;-80
2023/12/12 04:46:03;;;;;;;2.92;0.90;;;;;;;4.45;100.00;100774.38;7394382;19;20264;-80
2023/12/12 04:48:32;;;;;;;3.85;1.08;;;;;;;4.38;100.00;100763.44;7395043;19;19918;-80
2023/12/12 04:51:02;;;;;;;6.47;1.27;;;;;;;4.36;100.00;100759.22;7397276;19;20452;-80
2023/12/12 04:53:30;;;;;;;5.38;1.20;;;;;;;4.35;100.00;100763.72;7396752;19;19918;-80
2023/12/12 04:56:01;;;;;;;5.45;1.15;;;;;;;4.38;100.00;100767.94;7397184;19;19973;-80
2023/12/12 04:58:30;;;;;;;2.60;1.08;;;;;;;4.36;100.00;100767.22;7398337;19;19922;-80
2023/12/12 05:00:58;;;;;;;3.85;1.10;;;;;;;4.35;100.00;100769.06;7397819;19;19942;-80
2023/12/12 05:03:28;;;;;;;3.63;1.77;;;;;;;4.32;100.00;100758.66;7396640;19;19915;-80
2023/12/12 05:05:56;;;;;;;2.70;0.93;;;;;;;4.31;100.00;100762.31;7397018;19;19918;-80
2023/12/12 05:08:25;;;;;;;2.75;1.17;;;;;;;4.32;100.00;100758.66;7396815;19;19950;-80
2023/12/12 05:10:53;;;;;;;5.72;1.48;;;;;;;4.33;100.00;100771.00;7396620;19;19951;-80
2023/12/12 05:13:24;;;;;;;7.18;1.55;;;;;;;4.34;100.00;100767.38;7397091;19;19933;-80
2023/12/12 05:15:53;;;;;;;3.47;1.05;;;;;;;4.36;100.00;100762.72;7396689;19;19956;-80
2023/12/12 05:18:22;;;;;;;3.58;1.20;;;;;;;4.38;100.00;100766.09;7394008;19;19986;-80
2023/12/12 05:20:51;;;;;;;5.68;1.50;;;;;;;4.42;100.00;100764.84;7395192;19;19930;-80
2023/12/12 05:23:40;;;;;;;7.70;1.38;;;;;;;4.47;100.00;100762.59;7396051;19;19922;-80
2023/12/12 05:26:08;;;;;;;6.82;1.45;;;;;;;4.49;100.00;100765.97;7396316;19;19918;-80
2023/12/12 05:28:39;;;;;;;3.35;1.90;;;;;;;4.50;100.00;100762.31;7397298;19;19951;-80
2023/12/12 05:31:08;;;;;;;3.58;1.27;;;;;;;4.51;100.00;100764.00;7398059;19;19914;-80
2023/12/12 05:33:37;;;;;;;5.07;1.65;;;;;;;4.52;100.00;100768.38;7397301;19;19926;-80
2023/12/12 05:36:06;;;;;;;3.92;1.60;;;;;;;4.53;100.00;100762.03;7397155;19;19918;-82
2023/12/12 05:38:34;;;;;;;4.03;1.60;;;;;;;4.52;100.00;100762.19;7396408;19;19951;-81
2023/12/12 05:41:03;;;;;;;4.88;1.73;;;;;;;4.51;100.00;100757.81;7396773;19;20283;-81
2023/12/12 05:43:32;;;;;;;6.15;1.50;;;;;;;4.50;100.00;100764.97;7396736;19;20363;-82
2023/12/12 05:46:04;;;;;;;4.03;1.50;;;;;;;4.48;100.00;100753.63;7396750;19;19922;-81
2023/12/12 05:48:33;;;;;;;6.07;1.60;;;;;;;4.47;100.00;100757.28;7402015;19;19914;-81
2023/12/12 05:51:01;;;;;;;3.50;1.63;;;;;;;4.46;100.00;100752.91;7396301;19;19922;-81
2023/12/12 05:53:30;;;;;;;5.28;1.65;;;;;;;4.47;100.00;100759.94;7395633;19;19943;-81
2023/12/12 05:55:58;;;;;;;5.57;1.70;;;;;;;4.47;100.00;100761.75;7396139;19;19919;-81
2023/12/12 05:58:28;;;;;;;6.93;1.92;;;;;;;4.44;100.00;100757.53;7395079;19;19922;-82
2023/12/12 06:00:57;;;;;;;2.97;1.50;;;;;;;4.44;100.00;100756.72;7397451;19;20293;-81
2023/12/12 06:03:28;;;;;;;3.00;1.73;;;;;;;4.44;100.00;100757.53;7393303;19;19930;-80
2023/12/12 06:05:57;;;;;;;8.60;2.15;;;;;;;4.44;100.00;100754.84;7397015;19;20311;-81
2023/12/12 06:08:26;;;;;;;5.28;2.40;;;;;;;4.45;100.00;100751.22;7394471;19;19926;-80
2023/12/12 06:10:54;;;;;;;6.80;2.22;;;;;;;4.46;100.00;100754.72;7395648;19;19949;-80
2023/12/12 06:13:23;;;;;;;5.47;1.90;;;;;;;4.44;100.00;100752.19;7396440;19;19938;-80
2023/12/12 06:15:51;;;;;;;3.63;1.90;;;;;;;4.42;100.00;100754.19;7398453;19;19926;-80
2023/12/12 06:18:20;;;;;;;4.85;2.28;;;;;;;4.38;100.00;100751.94;7403625;19;19951;-80
2023/12/12 06:20:51;;;;;;;6.45;2.30;;;;;;;4.34;100.00;100755.84;7397823;19;19915;-80
2023/12/12 06:23:20;;;;;;;7.88;2.63;;;;;;;4.30;100.00;100751.78;7395951;19;20357;-80
2023/12/12 06:25:47;;;;;;;5.82;2.92;;;;;;;4.24;100.00;100750.50;7393797;19;19922;-80
2023/12/12 06:28:15;;;;;;;6.70;3.13;;;;;;;4.19;100.00;100743.91;7394702;19;19930;-80
2023/12/12 06:30:44;;;;;;;6.57;2.83;;;;;;;4.13;100.00;100753.31;7396149;19;20433;-80
2023/12/12 06:33:12;;;;;;;9.18;2.97;;;;;;;4.11;100.00;100744.59;7396641;19;19922;-80
2023/12/12 06:35:41;;;;;;;7.03;3.05;;;;;;;4.07;100.00;100741.38;7395231;19;19930;-80
2023/12/12 06:38:12;;;;;;;5.50;2.97;;;;;;;4.02;100.00;100751.63;7395560;19;19919;-80
2023/12/12 06:40:40;;;;;;;6.75;3.05;;;;;;;3.97;100.00;100748.50;7395896;19;19934;-80
2023/12/12 06:43:09;;;;;;;8.55;3.40;;;;;;;3.94;100.00;100751.47;7395254;19;19947;-80
2023/12/12 06:45:37;;;;;;;6.53;2.90;;;;;;;3.89;100.00;100750.19;7393210;19;20029;-80
2023/12/12 06:48:06;;;;;;;11.77;3.30;;;;;;;3.87;100.00;100753.00;7395894;19;19919;-80
2023/12/12 06:50:35;;;;;;;9.80;3.90;;;;;;;3.87;100.00;100762.81;7395301;19;20272;-80
2023/12/12 06:53:03;;;;;;;4.80;2.65;;;;;;;3.85;100.00;100752.28;7396065;19;19930;-80
2023/12/12 06:55:34;;;;;;;9.48;3.38;;;;;;;3.83;100.00;100740.94;7406064;19;19939;-80
2023/12/12 06:58:24;;;;;;;8.63;3.78;;;;;;;3.82;100.00;100743.72;7394221;19;19929;-80
2023/12/12 07:00:53;;;;;;;5.60;3.03;;;;;;;3.80;100.00;100741.19;7395691;19;19922;-80
2023/12/12 07:03:21;;;;;;;11.15;3.05;;;;;;;3.78;100.00;100739.66;7393143;19;19922;-79
2023/12/12 07:05:51;;;;;;;12.82;4.40;;;;;;;3.77;100.00;100738.81;7396433;19;19995;-80
2023/12/12 07:08:21;;;;;;;7.38;2.97;;;;;;;3.79;100.00;100744.00;7395326;19;19928;-80
2023/12/12 07:10:53;;;;;;;6.32;3.05;;;;;;;3.79;100.00;100738.69;7395815;19;19918;-80
2023/12/12 07:13:21;;;;;;;7.15;3.38;;;;;;;3.78;100.00;100748.50;7393731;19;19919;-80
2023/12/12 07:15:50;;;;;;;9.35;3.38;;;;;;;3.77;100.00;100752.13;7395678;19;19942;-80
2023/12/12 07:18:18;;;;;;;6.22;3.63;;;;;;;3.77;100.00;100767.25;7394980;19;20366;-80
2023/12/12 07:20:47;;;;;;;9.88;3.75;;;;;;;3.78;100.00;100760.97;7395967;19;20408;-80
2023/12/12 07:23:35;;;;;;;7.63;3.25;;;;;;;3.80;100.00;100765.16;7393478;19;19919;-80
2023/12/12 07:26:07;;;;;;;9.35;3.83;;;;;;;3.83;100.00;100762.25;7391694;19;19922;-80
2023/12/12 07:28:35;;;;;;;10.75;4.00;;;;;;;3.85;100.00;100762.94;7392923;19;19923;-80
2023/12/12 07:31:04;;;;;;;8.25;3.58;;;;;;;3.88;100.00;100765.34;7393577;19;19918;-80
2023/12/12 07:33:33;;;;;;;7.85;3.33;;;;;;;3.92;100.00;100764.09;7393345;19;20309;-80
2023/12/12 07:36:02;;;;;;;8.02;3.47;;;;;;;3.96;100.00;100757.50;7393113;19;19919;-80
2023/12/12 07:38:30;;;;;;;5.90;3.08;;;;;;;3.99;100.00;100761.72;7392271;19;19952;-80
2023/12/12 07:41:21;;;;;;;11.15;3.75;;;;;;;4.00;100.00;100764.25;7394622;19;19927;-80
2023/12/12 07:43:50;;;;;;;7.45;3.80;;;;;;;4.01;100.00;100767.75;7399337;19;19947;-80
2023/12/12 07:46:20;;;;;;;10.05;3.75;;;;;;;4.00;100.00;100752.75;7398798;19;20384;-80
2023/12/12 07:48:48;;;;;;;6.15;3.05;;;;;;;4.04;100.00;100755.00;7398635;19;19915;-80
2023/12/12 07:51:17;;;;;;;14.23;4.13;;;;;;;4.07;100.00;100756.53;7398705;19;19943;-80
2023/12/12 07:53:45;;;;;;;26.58;4.70;;;;;;;4.09;100.00;100752.75;7397188;19;19947;-80
2023/12/12 07:56:14;;;;;;;16.10;4.45;;;;;;;4.12;100.00;100751.63;7399340;19;19943;-80
2023/12/12 07:58:48;;;;;;;9.60;4.32;;;;;;;4.14;100.00;100747.03;7399089;19;20420;-80
2023/12/12 08:01:18;;;;;;;12.02;5.43;;;;;;;4.17;100.00;100748.56;7404034;19;20804;-80
2023/12/12 08:03:46;;;;;;;11.52;3.72;;;;;;;4.20;100.00;100756.25;7399314;19;19932;-79
2023/12/12 08:06:15;;;;;;;8.82;4.50;;;;;;;4.24;100.00;100749.66;7399284;19;19927;-80
2023/12/12 08:08:44;;;;;;;15.10;4.03;;;;;;;4.26;100.00;100743.22;7399950;19;19938;-80
2023/12/12 08:11:15;;;;;;;8.93;3.58;;;;;;;4.27;100.00;100744.91;7397091;19;19926;-80
2023/12/12 08:13:43;;;;;;;9.48;3.88;;;;;;;4.30;100.00;100741.13;7399892;19;19947;-80
2023/12/12 08:16:15;;;;;;;9.85;4.10;;;;;;;4.33;100.00;100741.69;7397768;19;19932;-80
2023/12/12 08:18:43;;;;;;;8.27;4.05;;;;;;;4.35;100.00;100742.41;7395092;19;19918;-80
2023/12/12 08:21:12;;;;;;;9.60;4.05;;;;;;;4.37;100.00;100740.41;7395228;19;19922;-80
2023/12/12 08:23:42;;;;;;;10.73;4.18;;;;;;;4.41;100.00;100741.81;7398392;19;19922;-80
2023/12/12 08:26:11;;;;;;;12.63;5.50;;;;;;;4.43;100.00;100744.34;7396262;19;19922;-80
2023/12/12 08:28:40;;;;;;;26.88;5.85;;;;;;;4.42;100.00;100743.50;7396645;19;19930;-80
2023/12/12 08:31:09;;;;;;;30.73;5.78;;;;;;;4.47;100.00;100757.28;7400303;19;19988;-80
2023/12/12 08:33:40;;;;;;;49.35;7.25;;;;;;;4.49;100.00;100747.28;7402960;19;19918;-80
2023/12/12 08:36:10;;;;;;;43.03;7.07;;;;;;;4.51;100.00;100750.66;7403307;19;19942;-80
2023/12/12 08:38:39;;;;;;;43.05;6.60;;;;;;;4.54;100.00;100750.38;7397113;19;19926;-80
2023/12/12 08:41:08;;;;;;;28.33;6.25;;;;;;;4.57;100.00;100746.59;7398213;19;19919;-80
2023/12/12 08:43:36;;;;;;;30.05;5.38;;;;;;;4.58;100.00;100743.78;7397407;19;19926;-80
2023/12/12 08:46:05;;;;;;;35.38;7.70;;;;;;;4.61;100.00;100737.34;7395910;19;19927;-80
2023/12/12 08:48:57;;;;;;;52.65;7.40;;;;;;;4.64;100.00;100737.03;7394396;19;19929;-80
2023/12/12 08:51:26;;;;;;;70.90;8.77;;;;;;;4.67;100.00;100746.56;7396998;19;19922;-80
2023/12/12 08:53:55;;;;;;;23.42;7.38;;;;;;;4.71;100.00;100739.97;7395840;19;19915;-80
2023/12/12 08:56:23;;;;;;;33.60;8.02;;;;;;;4.74;100.00;100742.38;7399094;19;19926;-80
2023/12/12 08:58:53;;;;;;;30.30;7.30;;;;;;;4.78;100.00;100741.94;7398172;19;20278;-80
2023/12/12 09:01:22;;;;;;;27.65;6.63;;;;;;;4.79;100.00;100740.94;7397402;19;19945;-80
2023/12/12 09:03:50;;;;;;;23.02;6.13;;;;;;;4.80;100.00;100733.78;7398384;19;20479;-80
2023/12/12 09:06:22;;;;;;;30.15;6.68;;;;;;;4.82;100.00;100738.00;7398387;19;19919;-80
2023/12/12 09:08:51;;;;;;;24.33;6.00;;;;;;;4.85;100.00;100724.34;7401322;19;20333;-80
2023/12/12 09:11:40;;;;;;;31.55;6.53;;;;;;;4.89;100.00;100730.25;7394333;19;19919;-80
2023/12/12 09:14:09;;;;;;;34.45;7.53;;;;;;;4.90;100.00;100726.59;7396414;19;19967;-80
2023/12/12 09:16:37;;;;;;;29.35;7.45;;;;;;;4.95;100.00;100727.00;7397186;19;19929;-80
2023/12/12 09:19:06;;;;;;;64.68;8.07;;;;;;;5.01;100.00;100727.25;7395660;19;19979;-80
2023/12/12 09:21:37;;;;;;;45.78;8.68;;;;;;;5.02;100.00;100720.09;7399244;19;20344;-79
2023/12/12 09:24:27;;;;;;;29.55;7.35;;;;;;;5.02;100.00;100720.09;7391647;19;19923;-77
2023/12/12 09:26:56;;;;;;;39.70;7.80;;;;;;;5.05;100.00;100714.47;7394760;19;19926;-77
2023/12/12 09:29:25;;;;;;;33.33;7.70;;;;;;;5.08;100.00;100721.34;7394792;19;19926;-77
2023/12/12 09:31:53;;;;;;;23.05;8.15;;;;;;;5.09;100.00;100709.69;7396568;19;19933;-77
2023/12/12 09:34:23;;;;;;;33.90;8.77;;;;;;;5.09;100.00;100721.19;7397005;19;19943;-78
2023/12/12 09:36:54;;;;;;;39.65;8.80;;;;;;;5.08;100.00;100716.00;7394849;19;20332;-77
2023/12/12 09:39:22;;;;;;;120.32;11.20;;;;;;;5.07;100.00;100717.84;7397402;19;19954;-77
2023/12/12 09:41:52;;;;;;;82.75;10.38;;;;;;;5.06;100.00;100716.16;7396253;19;19926;-77
2023/12/12 09:44:21;;;;;;;63.28;9.00;;;;;;;5.06;100.00;100720.66;7398057;19;19978;-78
2023/12/12 09:46:52;;;;;;;85.70;10.30;;;;;;;5.06;100.00;100707.28;7395048;19;19938;-77
2023/12/12 09:49:21;;;;;;;88.93;9.52;;;;;;;5.08;100.00;100713.34;7396714;19;19922;-86
2023/12/12 09:51:53;;;;;;;39.53;9.27;;;;;;;5.13;100.00;100711.94;7396397;19;19958;-80
2023/12/12 09:54:24;;;;;;;112.63;10.93;;;;;;;5.15;100.00;100704.59;7396179;19;19922;-80
2023/12/12 09:56:54;;;;;;;73.60;10.13;;;;;;;5.16;100.00;100703.63;7394134;19;19925;-82
2023/12/12 09:59:23;;;;;;;39.17;7.90;;;;;;;5.17;100.00;100694.63;7395338;19;19926;-81
2023/12/12 10:01:56;;;;;;;86.68;10.52;;;;;;;5.20;100.00;100688.97;7394808;19;19919;-81
2023/12/12 10:04:27;;;;;;;57.45;7.80;;;;;;;5.23;100.00;100683.34;7392501;19;19927;-79
2023/12/12 10:07:20;;;;;;;81.18;10.00;;;;;;;5.18;100.00;100674.94;7394346;19;20007;-76
2023/12/12 10:09:50;;;;;;;68.38;9.57;;;;;;;5.16;100.00;100676.91;7391941;19;19918;-80
2023/12/12 10:12:20;;;;;;;77.00;9.95;;;;;;;5.18;100.00;100666.09;7398572;19;19923;-80
2023/12/12 10:14:49;;;;;;;61.30;10.48;;;;;;;5.17;100.00;100659.91;7400874;19;19922;-79
2023/12/12 10:17:23;;;;;;;54.75;9.15;;;;;;;5.16;100.00;100660.91;7397000;19;19926;-79
2023/12/12 10:20:01;;;;;;;61.58;8.70;;;;;;;5.11;100.00;100656.97;7395295;19;19922;-78
2023/12/12 10:22:36;;;;;;;57.72;10.10;;;;;;;5.12;100.00;100654.16;7395243;19;19946;-79
2023/12/12 10:25:25;;;;;;;54.40;9.00;;;;;;;5.12;100.00;100651.50;7389636;19;19929;-79
2023/12/12 10:27:55;;;;;;;45.38;9.82;;;;;;;5.15;100.00;100645.00;7391694;19;20616;-80
2023/12/12 10:30:24;;;;;;;59.05;9.70;;;;;;;5.14;100.00;100636.16;7392141;19;19926;-78
2023/12/12 10:32:53;;;;;;;102.85;12.68;;;;;;;5.14;100.00;100633.47;7393485;19;19923;-78
2023/12/12 10:35:23;;;;;;;26.67;8.70;;;;;;;5.16;100.00;100628.84;7394073;19;19926;-78
2023/12/12 10:37:55;;;;;;;100.78;12.13;;;;;;;5.19;100.00;100627.69;7395253;19;19936;-77
2023/12/12 10:40:25;;;;;;;64.38;10.32;;;;;;;5.22;100.00;100614.88;7392868;19;19929;-77
2023/12/12 10:42:54;;;;;;;65.30;9.93;;;;;;;5.27;100.00;100623.31;7394721;19;20017;-80
2023/12/12 10:45:23;;;;;;;32.75;9.98;;;;;;;5.32;100.00;100614.84;7393281;19;20562;-79
2023/12/12 10:47:53;;;;;;;34.25;8.75;;;;;;;5.38;100.00;100611.59;7402226;19;19918;-79
2023/12/12 10:50:23;;;;;;;27.45;9.73;;;;;;;5.41;100.00;100609.44;7400932;19;19915;-79
2023/12/12 10:52:57;;;;;;;57.42;10.35;;;;;;;5.42;100.00;100595.09;7398659;19;19930;-79
2023/12/12 10:55:27;;;;;;;23.63;8.65;;;;;;;5.48;100.00;100604.31;7393312;19;19914;-79
2023/12/12 10:57:57;;;;;;;27.75;8.73;;;;;;;5.50;100.00;100597.03;7395422;19;20621;-79
2023/12/12 11:00:26;;;;;;;30.65;9.50;;;;;;;5.52;100.00;100599.56;7391951;19;20305;-80
2023/12/12 11:02:55;;;;;;;48.55;8.48;;;;;;;5.51;100.00;100608.56;7395527;19;20578;-80
2023/12/12 11:05:24;;;;;;;43.15;9.82;;;;;;;5.53;100.00;100595.88;7392017;19;19947;-80
2023/12/12 11:07:56;;;;;;;39.70;8.95;;;;;;;5.55;100.00;100596.56;7394224;19;20293;-81
2023/12/12 11:10:26;;;;;;;63.25;10.45;;;;;;;5.54;100.00;100597.56;7394094;19;19926;-81
2023/12/12 11:12:58;;;;;;;65.70;9.68;;;;;;;5.51;100.00;100593.38;7394359;19;20475;-80
2023/12/12 11:15:28;;;;;;;;;;;;;;;5.40;100.00;100582.88;7396542;19;19922;-80
2023/12/12 11:17:56;;;;;;;25.25;8.45;;;;;;;5.44;100.00;100582.44;7393713;19;20368;-79
2023/12/12 11:20:25;;;;;;;33.08;8.70;;;;;;;5.50;100.00;100572.97;7399296;19;19956;-80
2023/12/12 11:22:56;;;;;;;30.60;9.18;;;;;;;5.57;100.00;100565.16;7394110;19;20556;-80
2023/12/12 11:25:31;;;;;;;43.13;9.48;;;;;;;5.61;100.00;100556.69;7393308;19;19926;-82
2023/12/12 11:28:01;;;;;;;40.50;8.75;;;;;;;5.62;100.00;100557.53;7394126;19;19942;-82
2023/12/12 11:30:33;;;;;;;28.48;8.20;;;;;;;5.64;100.00;100544.88;7393254;19;19930;-78
2023/12/12 11:33:02;;;;;;;29.67;8.38;;;;;;;5.64;100.00;100545.72;7393725;19;19950;-78
2023/12/12 11:35:32;;;;;;;51.53;10.13;;;;;;;5.68;100.00;100548.94;7392455;19;19922;-81